createdAt,value
2022-08-03T00:04:48.071Z,22.58
2022-08-03T00:09:50.432Z,22.78
2022-08-03T00:14:51.998Z,22.65
2022-08-03T00:19:54.051Z,22.66
2022-08-03T00:24:55.643Z,22.43
2022-08-03T00:29:57.366Z,22.50
2022-08-03T00:35:07.861Z,22.42
2022-08-03T00:40:13.919Z,22.31
2022-08-03T00:45:15.456Z,22.38
2022-08-03T00:50:18.786Z,22.27
2022-08-03T00:55:20.618Z,22.28
2022-08-03T01:00:25.663Z,22.25
2022-08-03T01:05:27.384Z,22.26
2022-08-03T01:11:06.587Z,22.34
2022-08-03T01:16:36.887Z,22.18
2022-08-03T01:22:00.022Z,22.24
2022-08-03T01:27:15.851Z,21.95
2022-08-03T01:32:58.317Z,21.88
2022-08-03T01:38:02.816Z,21.78
2022-08-03T01:43:06.539Z,22.06
2022-08-03T01:48:09.857Z,22.43
2022-08-03T01:53:14.468Z,22.47
2022-08-03T01:58:18.713Z,22.43
2022-08-03T02:03:23.204Z,22.44
2022-08-03T02:08:27.116Z,22.46
2022-08-03T02:13:29.520Z,22.37
2022-08-03T02:18:33.397Z,22.42
2022-08-03T02:23:34.923Z,22.24
2022-08-03T02:28:41.613Z,22.08
2022-08-03T02:33:48.200Z,22.19
2022-08-03T02:38:53.520Z,22.04
2022-08-03T02:44:07.011Z,21.88
2022-08-03T02:49:41.420Z,21.78
2022-08-03T02:54:35.504Z,21.83
2022-08-03T02:59:39.033Z,21.77
2022-08-03T03:04:43.156Z,21.71
2022-08-03T03:10:04.952Z,21.44
2022-08-03T03:15:07.924Z,21.09
2022-08-03T03:20:10.100Z,21.37
2022-08-03T03:25:12.138Z,21.16
2022-08-03T03:30:13.919Z,21.31
2022-08-03T03:35:16.594Z,21.32
2022-08-03T03:40:19.292Z,21.28
2022-08-03T03:45:22.285Z,21.01
2022-08-03T03:50:23.992Z,21.06
2022-08-03T03:55:25.548Z,21.12
2022-08-03T04:00:27.123Z,21.20
2022-08-03T04:05:46.920Z,20.98
2022-08-03T04:11:14.683Z,20.92
2022-08-03T04:16:20.625Z,20.90
2022-08-03T04:21:23.500Z,20.80
2022-08-03T04:26:29.714Z,20.78
2022-08-03T04:31:32.317Z,20.66
2022-08-03T04:36:39.907Z,20.70
2022-08-03T04:42:08.242Z,20.84
2022-08-03T04:47:06.416Z,20.85
2022-08-03T04:52:09.859Z,20.96
2022-08-03T04:57:22.845Z,20.92
2022-08-03T05:02:25.041Z,20.88
2022-08-03T05:07:26.612Z,20.85
2022-08-03T05:12:37.984Z,21.01
2022-08-03T05:17:39.943Z,21.17
2022-08-03T05:22:41.441Z,21.30
2022-08-03T05:27:43.071Z,21.48
2022-08-03T05:32:44.745Z,21.58
2022-08-03T05:37:54.783Z,21.76
2022-08-03T05:42:57.584Z,22.01
2022-08-03T05:47:59.522Z,22.19
2022-08-03T05:53:01.097Z,22.37
2022-08-03T05:58:03.831Z,22.67
2022-08-03T06:03:05.372Z,22.89
2022-08-03T06:08:06.936Z,22.90
2022-08-03T06:13:08.512Z,22.98
2022-08-03T06:18:10.292Z,23.18
2022-08-03T06:23:16.178Z,23.26
2022-08-03T06:28:51.159Z,23.36
2022-08-03T06:34:32.153Z,23.54
2022-08-03T06:39:02.954Z,23.75
2022-08-03T06:44:04.820Z,23.99
2022-08-03T06:49:07.646Z,24.01
2022-08-03T06:54:09.223Z,24.15
2022-08-03T07:00:10.591Z,24.21
2022-08-03T07:04:33.354Z,24.33
2022-08-03T07:09:34.888Z,24.48
2022-08-03T07:14:36.449Z,24.60
2022-08-03T07:19:38.227Z,24.85
2022-08-03T07:24:41.788Z,24.77
2022-08-03T07:29:43.381Z,24.82
2022-08-03T07:34:44.988Z,24.78
2022-08-03T07:39:46.912Z,25.10
2022-08-03T07:44:48.400Z,25.22
2022-08-03T07:49:50.246Z,25.22
2022-08-03T07:54:51.837Z,25.46
2022-08-03T08:00:01.228Z,25.56
2022-08-03T08:05:13.633Z,25.69
2022-08-03T08:10:15.497Z,25.78
2022-08-03T08:15:17.045Z,26.03
2022-08-03T08:20:25.241Z,26.16
2022-08-03T08:25:32.917Z,26.19
2022-08-03T08:30:34.640Z,26.47
2022-08-03T08:35:37.177Z,26.72
2022-08-03T08:40:38.730Z,26.96
2022-08-03T08:45:41.260Z,27.04
2022-08-03T08:50:43.452Z,27.12
2022-08-03T08:55:59.419Z,27.17
2022-08-03T09:01:02.040Z,27.43
2022-08-03T09:06:05.114Z,27.56
2022-08-03T09:11:07.641Z,27.60
2022-08-03T09:16:18.380Z,27.84
2022-08-03T09:21:33.708Z,27.92
2022-08-03T09:26:37.674Z,27.96
2022-08-03T09:31:43.697Z,28.09
2022-08-03T09:36:46.710Z,28.46
2022-08-03T09:42:18.700Z,28.44
2022-08-03T09:47:30.130Z,28.63
2022-08-03T09:52:39.143Z,28.67
2022-08-03T09:57:52.164Z,28.80
2022-08-03T10:03:04.595Z,28.98
2022-08-03T10:08:15.302Z,29.04
2022-08-03T10:13:18.758Z,29.30
2022-08-03T10:18:20.345Z,29.15
2022-08-03T10:23:22.947Z,29.22
2022-08-03T10:28:24.968Z,29.58
2022-08-03T10:33:50.844Z,29.68
2022-08-03T10:38:55.060Z,29.83
2022-08-03T10:44:02.747Z,29.68
2022-08-03T10:49:06.014Z,29.77
2022-08-03T10:54:11.958Z,29.91
2022-08-03T10:59:27.491Z,30.01
2022-08-03T11:04:30.443Z,30.03
2022-08-03T11:09:41.964Z,30.27
2022-08-03T11:14:48.603Z,30.23
2022-08-03T11:19:58.121Z,30.53
2022-08-03T11:25:00.624Z,30.33
2022-08-03T11:30:11.303Z,30.47
2022-08-03T11:35:15.063Z,30.49
2022-08-03T11:40:32.805Z,30.52
2022-08-03T11:45:35.306Z,30.82
2022-08-03T11:50:37.960Z,30.83
2022-08-03T11:55:41.957Z,30.90
2022-08-03T12:00:43.612Z,30.92
2022-08-03T12:05:53.505Z,30.86
2022-08-03T12:10:59.977Z,31.06
2022-08-03T12:16:02.335Z,31.01
2022-08-03T12:21:10.088Z,31.14
2022-08-03T12:26:11.596Z,31.38
2022-08-03T12:31:13.600Z,31.23
2022-08-03T12:36:15.082Z,31.26
2022-08-03T12:41:16.673Z,31.32
2022-08-03T12:46:19.618Z,31.60
2022-08-03T12:51:21.088Z,31.64
2022-08-03T12:56:22.779Z,31.66
2022-08-03T13:01:24.504Z,31.83
2022-08-03T13:06:27.565Z,31.97
2022-08-03T13:11:53.534Z,31.97
2022-08-03T13:16:51.006Z,32.15
2022-08-03T13:22:03.703Z,32.43
2022-08-03T13:28:01.404Z,32.70
2022-08-03T13:32:28.913Z,32.40
2022-08-03T13:37:32.187Z,32.52
2022-08-03T13:42:35.172Z,32.68
2022-08-03T13:47:37.735Z,32.71
2022-08-03T13:52:39.299Z,32.48
2022-08-03T13:58:11.638Z,32.29
2022-08-03T14:03:10.840Z,32.55
2022-08-03T14:08:14.650Z,32.56
2022-08-03T14:13:17.510Z,32.68
2022-08-03T14:18:29.118Z,32.57
2022-08-03T14:23:37.735Z,32.59
2022-08-03T14:28:39.481Z,32.85
2022-08-03T14:33:41.074Z,32.98
2022-08-03T14:38:42.728Z,32.82
2022-08-03T14:44:01.061Z,32.77
2022-08-03T14:50:38.544Z,32.92
2022-08-03T14:54:26.813Z,32.90
2022-08-03T14:59:28.364Z,32.48
2022-08-03T15:04:49.898Z,32.32
2022-08-03T15:09:55.748Z,32.55
2022-08-03T15:14:57.220Z,32.90
2022-08-03T15:20:02.416Z,33.13
2022-08-03T15:26:28.199Z,33.09
2022-08-03T15:30:41.965Z,33.19
2022-08-03T15:35:43.700Z,33.29
2022-08-03T15:40:45.590Z,33.07
2022-08-03T15:45:47.471Z,33.11
2022-08-03T15:50:48.984Z,32.95
2022-08-03T15:55:50.580Z,32.95
2022-08-03T16:00:52.160Z,33.11
2022-08-03T16:05:54.356Z,32.94
2022-08-03T16:10:56.622Z,32.81
2022-08-03T16:16:00.890Z,32.85
2022-08-03T16:21:02.479Z,32.67
2022-08-03T16:26:08.711Z,32.67
2022-08-03T16:31:10.564Z,32.86
2022-08-03T16:36:12.076Z,32.73
2022-08-03T16:41:13.640Z,32.56
2022-08-03T16:46:15.233Z,32.39
2022-08-03T16:51:16.891Z,32.44
2022-08-03T16:56:18.486Z,32.28
2022-08-03T17:01:24.248Z,32.43
2022-08-03T17:06:34.447Z,32.26
2022-08-03T17:11:43.901Z,32.22
2022-08-03T17:16:53.042Z,31.95
2022-08-03T17:22:10.619Z,32.05
2022-08-03T17:28:41.655Z,31.68
2022-08-03T17:32:56.960Z,31.67
2022-08-03T17:38:03.015Z,31.65
2022-08-03T17:44:13.678Z,31.59
2022-08-03T17:48:27.151Z,31.52
2022-08-03T17:53:32.828Z,31.37
2022-08-03T17:58:56.113Z,31.51
2022-08-03T18:04:02.941Z,31.38
2022-08-03T18:14:57.396Z,31.02
2022-08-03T18:20:09.803Z,30.91
2022-08-03T18:25:19.256Z,30.78
2022-08-03T18:30:54.387Z,30.48
2022-08-03T18:35:57.597Z,30.38
2022-08-03T18:40:59.218Z,30.21
2022-08-03T18:46:06.140Z,30.18
2022-08-03T18:56:43.719Z,29.72
2022-08-03T19:01:59.671Z,29.39
2022-08-03T19:07:17.490Z,29.39
2022-08-03T19:12:39.447Z,29.34
2022-08-03T19:17:52.737Z,29.11
2022-08-03T19:22:55.980Z,29.09
2022-08-03T19:28:00.498Z,28.99
2022-08-03T19:33:05.850Z,28.81
2022-08-03T19:38:09.470Z,28.66
2022-08-03T19:43:58.873Z,28.63
2022-08-03T19:49:15.055Z,28.49
2022-08-03T19:54:29.310Z,28.50
2022-08-03T19:59:40.499Z,28.49
2022-08-03T20:04:52.625Z,28.27
2022-08-03T20:09:56.453Z,28.20
2022-08-03T20:14:58.984Z,28.04
2022-08-03T20:20:00.670Z,27.95
2022-08-03T20:25:07.439Z,27.87
2022-08-03T20:30:14.308Z,27.76
2022-08-03T20:35:16.104Z,27.62
2022-08-03T20:40:17.715Z,27.64
2022-08-03T20:45:58.219Z,27.67
2022-08-03T20:50:41.428Z,27.44
2022-08-03T20:55:48.047Z,27.32
2022-08-03T21:01:03.583Z,27.24
2022-08-03T21:06:07.050Z,27.28
2022-08-03T21:11:18.992Z,27.17
2022-08-03T21:12:57.103Z,31.20
2022-08-03T21:13:00.575Z,29.91
2022-08-03T21:16:26.790Z,27.04
2022-08-03T21:21:31.690Z,27.11
2022-08-03T21:26:36.151Z,26.82
2022-08-03T21:31:39.257Z,26.86
2022-08-03T21:36:40.885Z,26.70
2022-08-03T21:41:42.507Z,26.80
2022-08-03T21:46:45.317Z,26.74
2022-08-03T21:51:49.533Z,26.52
2022-08-03T21:56:51.519Z,26.41
2022-08-03T22:01:55.438Z,26.30
2022-08-03T22:07:00.925Z,26.38
2022-08-03T22:12:02.939Z,26.21
2022-08-03T22:17:07.312Z,26.25
2022-08-03T22:22:13.775Z,26.18
2022-08-03T22:27:32.260Z,26.08
2022-08-03T22:32:34.137Z,26.14
2022-08-03T22:37:37.144Z,26.09
2022-08-03T22:42:41.126Z,26.09
2022-08-03T22:47:43.127Z,26.02
2022-08-03T22:52:44.773Z,26.01
2022-08-03T22:57:46.379Z,26.01
2022-08-03T23:03:02.084Z,25.69
2022-08-03T23:08:04.784Z,25.63
2022-08-03T23:13:07.236Z,25.49
2022-08-03T23:18:09.439Z,25.70
2022-08-03T23:23:11.171Z,25.61
2022-08-03T23:28:18.345Z,25.69
2022-08-03T23:33:21.400Z,25.40
2022-08-03T23:38:28.567Z,25.49
2022-08-03T23:43:50.852Z,25.34
2022-08-03T23:48:56.518Z,25.41
2022-08-03T23:54:06.465Z,25.23
2022-08-03T23:59:23.831Z,25.04
